sensor_id;sensor_type;location;lat;lon;timestamp;pressure;altitude;pressure_sealevel;temperature;humidity
18858;BME280;9558;50.178;8.370;2022-07-23T00:00:10;98239.69;;;20.95;75.82
18858;BME280;9558;50.178;8.370;2022-07-23T00:02:38;98231.81;;;20.95;75.67
18858;BME280;9558;50.178;8.370;2022-07-23T00:05:05;98236.75;;;20.91;75.58
18858;BME280;9558;50.178;8.370;2022-07-23T00:07:31;98230.16;;;20.88;75.71
18858;BME280;9558;50.178;8.370;2022-07-23T00:09:58;98229.59;;;20.86;75.70
18858;BME280;9558;50.178;8.370;2022-07-23T00:12:25;98222.16;;;20.83;76.43
18858;BME280;9558;50.178;8.370;2022-07-23T00:14:51;98227.66;;;20.82;76.47
18858;BME280;9558;50.178;8.370;2022-07-23T00:17:18;98221.53;;;20.76;76.71
18858;BME280;9558;50.178;8.370;2022-07-23T00:19:46;98231.41;;;20.69;77.01
18858;BME280;9558;50.178;8.370;2022-07-23T00:22:13;98223.69;;;20.62;77.57
18858;BME280;9558;50.178;8.370;2022-07-23T00:24:39;98230.13;;;20.54;77.72
18858;BME280;9558;50.178;8.370;2022-07-23T00:27:06;98227.97;;;20.51;78.07
18858;BME280;9558;50.178;8.370;2022-07-23T00:29:32;98227.31;;;20.44;78.04
18858;BME280;9558;50.178;8.370;2022-07-23T00:31:59;98221.44;;;20.37;78.29
18858;BME280;9558;50.178;8.370;2022-07-23T00:34:25;98229.22;;;20.32;78.46
18858;BME280;9558;50.178;8.370;2022-07-23T00:36:53;98227.06;;;20.29;79.06
18858;BME280;9558;50.178;8.370;2022-07-23T00:39:20;98227.53;;;20.26;79.88
18858;BME280;9558;50.178;8.370;2022-07-23T00:41:47;98219.59;;;20.20;81.01
18858;BME280;9558;50.178;8.370;2022-07-23T00:44:15;98219.47;;;20.15;80.47
18858;BME280;9558;50.178;8.370;2022-07-23T00:46:45;98218.34;;;20.11;80.62
18858;BME280;9558;50.178;8.370;2022-07-23T00:49:12;98212.44;;;20.04;81.04
18858;BME280;9558;50.178;8.370;2022-07-23T00:51:38;98212.94;;;20.01;82.20
18858;BME280;9558;50.178;8.370;2022-07-23T00:54:06;98220.47;;;19.97;81.52
18858;BME280;9558;50.178;8.370;2022-07-23T00:56:34;98218.56;;;19.93;81.53
18858;BME280;9558;50.178;8.370;2022-07-23T00:59:00;98217.19;;;19.90;82.45
18858;BME280;9558;50.178;8.370;2022-07-23T01:01:27;98214.47;;;19.85;82.33
18858;BME280;9558;50.178;8.370;2022-07-23T01:03:53;98207.28;;;19.80;82.62
18858;BME280;9558;50.178;8.370;2022-07-23T01:06:20;98206.16;;;19.76;82.86
18858;BME280;9558;50.178;8.370;2022-07-23T01:08:47;98219.16;;;19.71;83.64
18858;BME280;9558;50.178;8.370;2022-07-23T01:11:15;98225.38;;;19.65;83.79
18858;BME280;9558;50.178;8.370;2022-07-23T01:13:44;98226.28;;;19.59;84.30
18858;BME280;9558;50.178;8.370;2022-07-23T01:16:11;98229.13;;;19.57;84.84
18858;BME280;9558;50.178;8.370;2022-07-23T01:18:37;98220.94;;;19.54;84.85
18858;BME280;9558;50.178;8.370;2022-07-23T01:21:04;98223.56;;;19.54;86.22
18858;BME280;9558;50.178;8.370;2022-07-23T01:23:32;98230.31;;;19.49;84.94
18858;BME280;9558;50.178;8.370;2022-07-23T01:25:58;98239.78;;;19.50;85.41
18858;BME280;9558;50.178;8.370;2022-07-23T01:28:25;98243.19;;;19.51;86.13
18858;BME280;9558;50.178;8.370;2022-07-23T01:30:51;98249.00;;;19.53;85.96
18858;BME280;9558;50.178;8.370;2022-07-23T01:33:18;98243.50;;;19.55;86.38
18858;BME280;9558;50.178;8.370;2022-07-23T01:35:44;98232.78;;;19.56;86.50
18858;BME280;9558;50.178;8.370;2022-07-23T01:38:11;98227.75;;;19.55;86.49
18858;BME280;9558;50.178;8.370;2022-07-23T01:40:39;98216.25;;;19.56;86.44
18858;BME280;9558;50.178;8.370;2022-07-23T01:43:05;98209.84;;;19.51;86.25
18858;BME280;9558;50.178;8.370;2022-07-23T01:45:32;98218.78;;;19.50;87.78
18858;BME280;9558;50.178;8.370;2022-07-23T01:47:58;98212.16;;;19.48;86.80
18858;BME280;9558;50.178;8.370;2022-07-23T01:50:25;98196.66;;;19.46;87.08
18858;BME280;9558;50.178;8.370;2022-07-23T01:52:51;98200.28;;;19.45;86.94
18858;BME280;9558;50.178;8.370;2022-07-23T01:55:18;98219.22;;;19.47;88.47
18858;BME280;9558;50.178;8.370;2022-07-23T01:57:46;98204.41;;;19.41;89.04
18858;BME280;9558;50.178;8.370;2022-07-23T02:00:13;98205.91;;;19.37;89.05
18858;BME280;9558;50.178;8.370;2022-07-23T02:02:39;98212.06;;;19.31;88.71
18858;BME280;9558;50.178;8.370;2022-07-23T02:05:07;98232.47;;;19.29;88.61
18858;BME280;9558;50.178;8.370;2022-07-23T02:07:34;98241.06;;;19.24;90.66
18858;BME280;9558;50.178;8.370;2022-07-23T02:10:04;98233.41;;;19.23;90.83
18858;BME280;9558;50.178;8.370;2022-07-23T02:12:30;98238.44;;;19.12;90.91
18858;BME280;9558;50.178;8.370;2022-07-23T02:14:58;98233.31;;;19.06;91.23
18858;BME280;9558;50.178;8.370;2022-07-23T02:17:25;98228.16;;;18.99;92.39
18858;BME280;9558;50.178;8.370;2022-07-23T02:19:51;98223.50;;;18.89;94.02
18858;BME280;9558;50.178;8.370;2022-07-23T02:22:18;98221.53;;;18.85;93.65
18858;BME280;9558;50.178;8.370;2022-07-23T02:24:44;98221.97;;;18.81;93.83
18858;BME280;9558;50.178;8.370;2022-07-23T02:27:11;98222.44;;;18.78;94.76
18858;BME280;9558;50.178;8.370;2022-07-23T02:29:37;98225.06;;;18.78;95.15
18858;BME280;9558;50.178;8.370;2022-07-23T02:32:05;98221.28;;;18.74;94.85
18858;BME280;9558;50.178;8.370;2022-07-23T02:34:32;98240.66;;;18.73;95.39
18858;BME280;9558;50.178;8.370;2022-07-23T02:36:58;98238.25;;;18.72;95.42
18858;BME280;9558;50.178;8.370;2022-07-23T02:39:25;98241.94;;;18.71;96.00
18858;BME280;9558;50.178;8.370;2022-07-23T02:41:52;98241.13;;;18.70;95.80
18858;BME280;9558;50.178;8.370;2022-07-23T02:44:19;98250.59;;;18.71;96.77
18858;BME280;9558;50.178;8.370;2022-07-23T02:46:45;98263.69;;;18.71;96.67
18858;BME280;9558;50.178;8.370;2022-07-23T02:49:13;98271.00;;;18.69;96.71
18858;BME280;9558;50.178;8.370;2022-07-23T02:51:40;98270.19;;;18.69;97.11
18858;BME280;9558;50.178;8.370;2022-07-23T02:54:06;98272.69;;;18.63;97.51
18858;BME280;9558;50.178;8.370;2022-07-23T02:56:33;98262.28;;;18.57;97.45
18858;BME280;9558;50.178;8.370;2022-07-23T02:58:59;98259.53;;;18.52;98.20
18858;BME280;9558;50.178;8.370;2022-07-23T03:01:26;98254.75;;;18.48;97.50
18858;BME280;9558;50.178;8.370;2022-07-23T03:03:52;98255.19;;;18.45;98.02
18858;BME280;9558;50.178;8.370;2022-07-23T03:06:20;98247.19;;;18.40;97.93
18858;BME280;9558;50.178;8.370;2022-07-23T03:08:47;98239.22;;;18.35;98.69
18858;BME280;9558;50.178;8.370;2022-07-23T03:11:13;98246.94;;;18.30;98.33
18858;BME280;9558;50.178;8.370;2022-07-23T03:13:40;98242.16;;;18.27;98.80
18858;BME280;9558;50.178;8.370;2022-07-23T03:16:07;98242.16;;;18.27;99.27
18858;BME280;9558;50.178;8.370;2022-07-23T03:18:34;98243.19;;;18.26;98.90
18858;BME280;9558;50.178;8.370;2022-07-23T03:21:01;98246.38;;;18.28;98.96
18858;BME280;9558;50.178;8.370;2022-07-23T03:23:28;98250.59;;;18.29;98.86
18858;BME280;9558;50.178;8.370;2022-07-23T03:25:55;98247.78;;;18.30;98.86
18858;BME280;9558;50.178;8.370;2022-07-23T03:28:22;98248.56;;;18.31;98.67
18858;BME280;9558;50.178;8.370;2022-07-23T03:30:48;98253.81;;;18.31;98.32
18858;BME280;9558;50.178;8.370;2022-07-23T03:33:16;98256.97;;;18.33;98.56
18858;BME280;9558;50.178;8.370;2022-07-23T03:35:43;98260.19;;;18.35;98.20
18858;BME280;9558;50.178;8.370;2022-07-23T03:38:09;98263.38;;;18.37;98.54
18858;BME280;9558;50.178;8.370;2022-07-23T03:40:37;98254.94;;;18.35;98.17
18858;BME280;9558;50.178;8.370;2022-07-23T03:43:04;98253.34;;;18.34;97.81
18858;BME280;9558;50.178;8.370;2022-07-23T03:45:31;98262.22;;;18.33;97.83
18858;BME280;9558;50.178;8.370;2022-07-23T03:47:57;98261.44;;;18.33;97.64
18858;BME280;9558;50.178;8.370;2022-07-23T03:50:24;98272.28;;;18.36;97.75
18858;BME280;9558;50.178;8.370;2022-07-23T03:52:51;98276.38;;;18.32;97.83
18858;BME280;9558;50.178;8.370;2022-07-23T03:55:17;98271.53;;;18.29;97.35
18858;BME280;9558;50.178;8.370;2022-07-23T03:57:45;98272.59;;;18.28;97.66
18858;BME280;9558;50.178;8.370;2022-07-23T04:00:13;98279.06;;;18.25;97.34
18858;BME280;9558;50.178;8.370;2022-07-23T04:02:40;98279.72;;;18.21;97.15
18858;BME280;9558;50.178;8.370;2022-07-23T04:05:07;98283.00;;;18.16;96.95
18858;BME280;9558;50.178;8.370;2022-07-23T04:07:33;98285.41;;;18.18;97.02
18858;BME280;9558;50.178;8.370;2022-07-23T04:10:00;98295.09;;;18.17;96.86
18858;BME280;9558;50.178;8.370;2022-07-23T04:12:26;98295.91;;;18.18;97.00
18858;BME280;9558;50.178;8.370;2022-07-23T04:14:55;98295.31;;;18.16;96.88
18858;BME280;9558;50.178;8.370;2022-07-23T04:17:21;98295.91;;;18.18;96.83
18858;BME280;9558;50.178;8.370;2022-07-23T04:19:48;98300.53;;;18.16;96.88
18858;BME280;9558;50.178;8.370;2022-07-23T04:22:15;98296.75;;;18.11;96.91
18858;BME280;9558;50.178;8.370;2022-07-23T04:24:41;98289.34;;;18.08;97.65
18858;BME280;9558;50.178;8.370;2022-07-23T04:27:08;98293.81;;;18.08;97.80
18858;BME280;9558;50.178;8.370;2022-07-23T04:29:34;98298.44;;;18.06;97.79
18858;BME280;9558;50.178;8.370;2022-07-23T04:32:03;98304.50;;;18.06;97.88
18858;BME280;9558;50.178;8.370;2022-07-23T04:34:30;98307.91;;;18.07;98.12
18858;BME280;9558;50.178;8.370;2022-07-23T04:36:56;98310.75;;;18.05;99.41
18858;BME280;9558;50.178;8.370;2022-07-23T04:39:23;98305.72;;;18.04;98.46
18858;BME280;9558;50.178;8.370;2022-07-23T04:41:50;98315.38;;;18.03;98.42
18858;BME280;9558;50.178;8.370;2022-07-23T04:44:16;98311.97;;;18.03;98.28
18858;BME280;9558;50.178;8.370;2022-07-23T04:46:43;98317.00;;;18.04;98.16
18858;BME280;9558;50.178;8.370;2022-07-23T04:49:11;98324.19;;;18.09;98.13
18858;BME280;9558;50.178;8.370;2022-07-23T04:51:38;98322.50;;;18.14;98.39
18858;BME280;9558;50.178;8.370;2022-07-23T04:54:04;98332.13;;;18.21;98.34
18858;BME280;9558;50.178;8.370;2022-07-23T04:56:31;98336.47;;;18.27;98.45
18858;BME280;9558;50.178;8.370;2022-07-23T04:58:58;98329.91;;;18.36;98.33
18858;BME280;9558;50.178;8.370;2022-07-23T05:01:24;98326.19;;;18.44;98.51
18858;BME280;9558;50.178;8.370;2022-07-23T05:03:51;98325.88;;;18.52;97.92
18858;BME280;9558;50.178;8.370;2022-07-23T05:06:19;98328.38;;;18.59;97.58
18858;BME280;9558;50.178;8.370;2022-07-23T05:08:45;98336.94;;;18.66;97.33
18858;BME280;9558;50.178;8.370;2022-07-23T05:11:12;98337.66;;;18.73;97.02
18858;BME280;9558;50.178;8.370;2022-07-23T05:13:39;98328.09;;;18.79;96.85
18858;BME280;9558;50.178;8.370;2022-07-23T05:16:06;98329.84;;;18.85;96.58
18858;BME280;9558;50.178;8.370;2022-07-23T05:18:32;98331.34;;;18.93;96.21
18858;BME280;9558;50.178;8.370;2022-07-23T05:20:59;98334.69;;;19.00;95.82
18858;BME280;9558;50.178;8.370;2022-07-23T05:23:27;98340.28;;;19.04;95.40
18858;BME280;9558;50.178;8.370;2022-07-23T05:25:54;98336.19;;;19.08;95.14
18858;BME280;9558;50.178;8.370;2022-07-23T05:28:20;98331.72;;;19.08;95.03
18858;BME280;9558;50.178;8.370;2022-07-23T05:30:47;98326.47;;;19.08;94.69
18858;BME280;9558;50.178;8.370;2022-07-23T05:33:13;98324.41;;;19.10;94.67
18858;BME280;9558;50.178;8.370;2022-07-23T05:35:40;98332.19;;;19.17;94.36
18858;BME280;9558;50.178;8.370;2022-07-23T05:38:10;98340.44;;;19.21;94.18
18858;BME280;9558;50.178;8.370;2022-07-23T05:40:38;98337.22;;;19.19;94.03
18858;BME280;9558;50.178;8.370;2022-07-23T05:43:04;98343.59;;;19.23;94.29
18858;BME280;9558;50.178;8.370;2022-07-23T05:45:31;98338.81;;;19.31;93.88
18858;BME280;9558;50.178;8.370;2022-07-23T05:47:57;98345.09;;;19.42;93.27
18858;BME280;9558;50.178;8.370;2022-07-23T05:50:24;98343.84;;;19.57;92.87
18858;BME280;9558;50.178;8.370;2022-07-23T05:52:51;98354.00;;;19.65;92.36
18858;BME280;9558;50.178;8.370;2022-07-23T05:55:18;98363.72;;;19.76;91.94
18858;BME280;9558;50.178;8.370;2022-07-23T05:57:46;98364.41;;;19.83;91.44
18858;BME280;9558;50.178;8.370;2022-07-23T06:00:13;98363.59;;;19.95;90.55
18858;BME280;9558;50.178;8.370;2022-07-23T06:02:39;98364.81;;;20.04;90.47
18858;BME280;9558;50.178;8.370;2022-07-23T06:05:07;98367.66;;;20.14;89.42
18858;BME280;9558;50.178;8.370;2022-07-23T06:07:34;98366.34;;;20.29;88.80
18858;BME280;9558;50.178;8.370;2022-07-23T06:10:01;98355.81;;;20.41;88.15
18858;BME280;9558;50.178;8.370;2022-07-23T06:12:27;98352.56;;;20.50;87.62
18858;BME280;9558;50.178;8.370;2022-07-23T06:14:55;98356.19;;;20.61;86.86
18858;BME280;9558;50.178;8.370;2022-07-23T06:17:22;98349.75;;;20.69;84.79
18858;BME280;9558;50.178;8.370;2022-07-23T06:19:49;98352.66;;;20.84;85.41
18858;BME280;9558;50.178;8.370;2022-07-23T06:22:15;98365.09;;;21.06;84.43
18858;BME280;9558;50.178;8.370;2022-07-23T06:24:42;98366.00;;;21.29;82.55
18858;BME280;9558;50.178;8.370;2022-07-23T06:27:09;98362.34;;;21.64;82.02
18858;BME280;9558;50.178;8.370;2022-07-23T06:29:35;98370.31;;;22.13;79.34
18858;BME280;9558;50.178;8.370;2022-07-23T06:32:04;98372.56;;;22.71;75.47
18858;BME280;9558;50.178;8.370;2022-07-23T06:34:30;98372.53;;;23.25;74.47
18858;BME280;9558;50.178;8.370;2022-07-23T06:36:57;98375.13;;;23.63;71.85
18858;BME280;9558;50.178;8.370;2022-07-23T06:39:24;98375.63;;;24.03;69.85
18858;BME280;9558;50.178;8.370;2022-07-23T06:41:58;98383.75;;;24.59;63.92
18858;BME280;9558;50.178;8.370;2022-07-23T06:44:26;98378.81;;;25.19;65.30
18858;BME280;9558;50.178;8.370;2022-07-23T06:46:53;98382.44;;;25.75;63.93
18858;BME280;9558;50.178;8.370;2022-07-23T06:49:21;98380.16;;;26.29;61.14
18858;BME280;9558;50.178;8.370;2022-07-23T06:51:47;98377.50;;;26.79;58.93
18858;BME280;9558;50.178;8.370;2022-07-23T06:54:14;98372.34;;;27.22;57.13
18858;BME280;9558;50.178;8.370;2022-07-23T06:56:41;98364.69;;;27.50;54.69
18858;BME280;9558;50.178;8.370;2022-07-23T06:59:08;98368.88;;;27.80;52.44
18858;BME280;9558;50.178;8.370;2022-07-23T07:01:35;98373.16;;;28.05;53.83
18858;BME280;9558;50.178;8.370;2022-07-23T07:04:02;98372.72;;;28.36;52.52
18858;BME280;9558;50.178;8.370;2022-07-23T07:06:30;98387.97;;;28.74;51.03
18858;BME280;9558;50.178;8.370;2022-07-23T07:08:57;98383.91;;;29.09;50.19
18858;BME280;9558;50.178;8.370;2022-07-23T07:11:23;98387.88;;;29.31;49.11
18858;BME280;9558;50.178;8.370;2022-07-23T07:13:50;98395.97;;;29.54;48.60
18858;BME280;9558;50.178;8.370;2022-07-23T07:16:17;98397.03;;;29.86;46.48
18858;BME280;9558;50.178;8.370;2022-07-23T07:18:44;98399.97;;;29.98;46.01
18858;BME280;9558;50.178;8.370;2022-07-23T07:21:10;98406.19;;;30.07;45.02
18858;BME280;9558;50.178;8.370;2022-07-23T07:23:38;98408.44;;;30.28;45.56
18858;BME280;9558;50.178;8.370;2022-07-23T07:26:07;98414.56;;;30.42;44.43
18858;BME280;9558;50.178;8.370;2022-07-23T07:28:33;98417.13;;;30.61;43.05
18858;BME280;9558;50.178;8.370;2022-07-23T07:31:00;98421.19;;;30.81;42.38
18858;BME280;9558;50.178;8.370;2022-07-23T07:33:27;98419.53;;;31.08;41.91
18858;BME280;9558;50.178;8.370;2022-07-23T07:35:55;98433.13;;;31.21;41.38
18858;BME280;9558;50.178;8.370;2022-07-23T07:38:22;98440.41;;;31.29;40.81
18858;BME280;9558;50.178;8.370;2022-07-23T07:40:50;98444.03;;;31.56;40.31
18858;BME280;9558;50.178;8.370;2022-07-23T07:43:16;98452.94;;;31.74;38.87
18858;BME280;9558;50.178;8.370;2022-07-23T07:45:43;98451.47;;;31.99;38.21
18858;BME280;9558;50.178;8.370;2022-07-23T07:48:10;98457.22;;;32.24;36.05
18858;BME280;9558;50.178;8.370;2022-07-23T07:50:36;98456.66;;;32.62;36.72
18858;BME280;9558;50.178;8.370;2022-07-23T07:53:09;98460.00;;;32.94;35.86
18858;BME280;9558;50.178;8.370;2022-07-23T07:55:38;98457.63;;;33.18;35.38
18858;BME280;9558;50.178;8.370;2022-07-23T07:58:06;98457.63;;;33.36;34.65
18858;BME280;9558;50.178;8.370;2022-07-23T08:00:37;98464.59;;;33.67;34.59
18858;BME280;9558;50.178;8.370;2022-07-23T08:03:03;98467.38;;;33.97;34.95
18858;BME280;9558;50.178;8.370;2022-07-23T08:05:30;98467.09;;;34.19;34.02
18858;BME280;9558;50.178;8.370;2022-07-23T08:07:58;98466.44;;;34.52;33.47
18858;BME280;9558;50.178;8.370;2022-07-23T08:10:26;98462.47;;;34.79;32.85
18858;BME280;9558;50.178;8.370;2022-07-23T08:12:55;98461.00;;;35.03;32.41
18858;BME280;9558;50.178;8.370;2022-07-23T08:15:25;98474.69;;;35.32;32.10
18858;BME280;9558;50.178;8.370;2022-07-23T08:17:53;98468.00;;;35.62;31.75
18858;BME280;9558;50.178;8.370;2022-07-23T08:20:21;98467.16;;;35.83;31.28
18858;BME280;9558;50.178;8.370;2022-07-23T08:22:50;98469.63;;;36.01;30.66
18858;BME280;9558;50.178;8.370;2022-07-23T08:25:20;98474.00;;;36.18;30.43
18858;BME280;9558;50.178;8.370;2022-07-23T08:27:48;98470.84;;;36.40;30.20
18858;BME280;9558;50.178;8.370;2022-07-23T08:30:14;98469.47;;;36.59;29.28
18858;BME280;9558;50.178;8.370;2022-07-23T08:32:51;98479.97;;;36.76;29.03
18858;BME280;9558;50.178;8.370;2022-07-23T08:35:22;98481.22;;;36.79;29.03
18858;BME280;9558;50.178;8.370;2022-07-23T08:37:49;98479.53;;;36.74;29.10
18858;BME280;9558;50.178;8.370;2022-07-23T08:40:17;98482.00;;;36.79;29.18
18858;BME280;9558;50.178;8.370;2022-07-23T08:42:45;98483.78;;;36.88;29.54
18858;BME280;9558;50.178;8.370;2022-07-23T08:45:16;98484.25;;;36.77;30.14
18858;BME280;9558;50.178;8.370;2022-07-23T08:47:43;98490.97;;;36.30;30.03
18858;BME280;9558;50.178;8.370;2022-07-23T08:50:11;98481.94;;;35.64;31.02
18858;BME280;9558;50.178;8.370;2022-07-23T08:52:38;98485.22;;;34.82;31.58
18858;BME280;9558;50.178;8.370;2022-07-23T08:55:07;98486.00;;;34.02;33.08
18858;BME280;9558;50.178;8.370;2022-07-23T08:57:33;98491.63;;;33.62;33.86
18858;BME280;9558;50.178;8.370;2022-07-23T09:00:00;98485.81;;;33.51;34.33
18858;BME280;9558;50.178;8.370;2022-07-23T09:02:27;98482.63;;;33.75;34.18
18858;BME280;9558;50.178;8.370;2022-07-23T09:04:54;98487.91;;;34.01;34.36
18858;BME280;9558;50.178;8.370;2022-07-23T09:07:22;98490.66;;;34.14;33.82
18858;BME280;9558;50.178;8.370;2022-07-23T09:10:04;98479.88;;;34.31;33.12
18858;BME280;9558;50.178;8.370;2022-07-23T09:12:31;98481.38;;;34.62;32.93
18858;BME280;9558;50.178;8.370;2022-07-23T09:15:03;98484.13;;;34.83;33.03
18858;BME280;9558;50.178;8.370;2022-07-23T09:17:37;98477.00;;;34.78;32.63
18858;BME280;9558;50.178;8.370;2022-07-23T09:20:08;98474.13;;;34.63;33.33
18858;BME280;9558;50.178;8.370;2022-07-23T09:22:37;98476.75;;;34.50;33.33
18858;BME280;9558;50.178;8.370;2022-07-23T09:25:06;98475.94;;;34.29;33.78
18858;BME280;9558;50.178;8.370;2022-07-23T09:28:01;98487.28;;;33.96;33.27
18858;BME280;9558;50.178;8.370;2022-07-23T09:30:29;98482.78;;;33.70;33.44
18858;BME280;9558;50.178;8.370;2022-07-23T09:33:09;98482.56;;;33.28;34.54
18858;BME280;9558;50.178;8.370;2022-07-23T09:35:48;98480.66;;;33.02;35.28
18858;BME280;9558;50.178;8.370;2022-07-23T09:38:17;98485.09;;;32.80;35.43
18858;BME280;9558;50.178;8.370;2022-07-23T09:40:45;98478.41;;;32.51;36.05
18858;BME280;9558;50.178;8.370;2022-07-23T09:43:13;98483.03;;;32.19;35.81
18858;BME280;9558;50.178;8.370;2022-07-23T09:45:52;98489.06;;;31.94;36.01
18858;BME280;9558;50.178;8.370;2022-07-23T09:48:21;98488.66;;;31.69;36.43
18858;BME280;9558;50.178;8.370;2022-07-23T09:50:50;98484.09;;;31.47;36.01
18858;BME280;9558;50.178;8.370;2022-07-23T09:53:24;98485.41;;;31.27;36.43
18858;BME280;9558;50.178;8.370;2022-07-23T09:55:52;98487.47;;;30.93;36.58
18858;BME280;9558;50.178;8.370;2022-07-23T09:58:23;98480.72;;;30.59;37.57
18858;BME280;9558;50.178;8.370;2022-07-23T10:00:53;98493.69;;;30.38;38.18
18858;BME280;9558;50.178;8.370;2022-07-23T10:03:20;98486.56;;;30.20;38.12
18858;BME280;9558;50.178;8.370;2022-07-23T10:05:46;98485.97;;;30.09;38.48
18858;BME280;9558;50.178;8.370;2022-07-23T10:08:17;98488.03;;;29.98;38.14
18858;BME280;9558;50.178;8.370;2022-07-23T10:10:46;98489.91;;;29.84;37.42
18858;BME280;9558;50.178;8.370;2022-07-23T10:13:14;98486.97;;;29.66;37.51
18858;BME280;9558;50.178;8.370;2022-07-23T10:15:58;98490.41;;;29.53;37.84
18858;BME280;9558;50.178;8.370;2022-07-23T10:18:25;98487.34;;;29.45;37.69
18858;BME280;9558;50.178;8.370;2022-07-23T10:20:52;98483.66;;;29.41;37.52
18858;BME280;9558;50.178;8.370;2022-07-23T10:23:24;98484.25;;;29.38;37.13
18858;BME280;9558;50.178;8.370;2022-07-23T10:26:03;98485.41;;;29.32;37.69
18858;BME280;9558;50.178;8.370;2022-07-23T10:28:44;98486.31;;;29.22;37.38
18858;BME280;9558;50.178;8.370;2022-07-23T10:31:20;98472.84;;;29.13;37.60
18858;BME280;9558;50.178;8.370;2022-07-23T10:33:56;98474.69;;;28.99;37.83
18858;BME280;9558;50.178;8.370;2022-07-23T10:36:35;98477.41;;;28.75;37.91
18858;BME280;9558;50.178;8.370;2022-07-23T10:39:11;98475.78;;;28.55;38.62
18858;BME280;9558;50.178;8.370;2022-07-23T10:41:43;98478.38;;;28.41;38.92
18858;BME280;9558;50.178;8.370;2022-07-23T10:44:11;98470.72;;;28.34;39.84
18858;BME280;9558;50.178;8.370;2022-07-23T10:46:56;98474.53;;;28.28;40.22
18858;BME280;9558;50.178;8.370;2022-07-23T10:49:41;98474.53;;;28.28;40.59
18858;BME280;9558;50.178;8.370;2022-07-23T10:52:23;98466.03;;;28.26;40.56
18858;BME280;9558;50.178;8.370;2022-07-23T10:54:52;98462.06;;;28.23;41.28
18858;BME280;9558;50.178;8.370;2022-07-23T10:57:21;98461.72;;;28.30;42.06
18858;BME280;9558;50.178;8.370;2022-07-23T11:00:14;98469.66;;;28.35;42.02
18858;BME280;9558;50.178;8.370;2022-07-23T11:02:44;98463.44;;;28.21;41.00
18858;BME280;9558;50.178;8.370;2022-07-23T11:05:12;98453.34;;;28.18;41.07
18858;BME280;9558;50.178;8.370;2022-07-23T11:08:10;98457.63;;;28.14;41.71
18858;BME280;9558;50.178;8.370;2022-07-23T11:10:41;98456.06;;;28.13;41.62
18858;BME280;9558;50.178;8.370;2022-07-23T11:13:32;98464.66;;;28.04;42.05
18858;BME280;9558;50.178;8.370;2022-07-23T11:16:23;98454.63;;;27.96;41.80
18858;BME280;9558;50.178;8.370;2022-07-23T11:19:04;98455.59;;;27.81;43.02
18858;BME280;9558;50.178;8.370;2022-07-23T11:21:44;98466.53;;;27.74;43.58
18858;BME280;9558;50.178;8.370;2022-07-23T11:24:13;98469.72;;;27.76;44.60
18858;BME280;9558;50.178;8.370;2022-07-23T11:26:43;98458.69;;;27.88;44.51
18858;BME280;9558;50.178;8.370;2022-07-23T11:29:48;98455.16;;;27.98;43.79
18858;BME280;9558;50.178;8.370;2022-07-23T11:32:36;98462.88;;;28.00;43.81
18858;BME280;9558;50.178;8.370;2022-07-23T11:35:29;98454.47;;;28.12;43.81
18858;BME280;9558;50.178;8.370;2022-07-23T11:38:04;98447.72;;;28.19;43.47
18858;BME280;9558;50.178;8.370;2022-07-23T11:40:31;98450.50;;;28.33;43.88
18858;BME280;9558;50.178;8.370;2022-07-23T11:42:59;98453.09;;;28.38;43.00
18858;BME280;9558;50.178;8.370;2022-07-23T11:45:31;98458.78;;;28.51;43.33
18858;BME280;9558;50.178;8.370;2022-07-23T11:47:58;98457.13;;;28.55;43.18
18858;BME280;9558;50.178;8.370;2022-07-23T11:50:25;98454.56;;;28.50;42.78
18858;BME280;9558;50.178;8.370;2022-07-23T11:52:52;98458.88;;;28.45;42.73
18858;BME280;9558;50.178;8.370;2022-07-23T11:55:19;98456.84;;;28.37;42.64
18858;BME280;9558;50.178;8.370;2022-07-23T11:57:46;98445.19;;;28.33;42.40
18858;BME280;9558;50.178;8.370;2022-07-23T12:00:16;98446.81;;;28.29;42.50
18858;BME280;9558;50.178;8.370;2022-07-23T12:02:46;98448.47;;;28.25;43.07
18858;BME280;9558;50.178;8.370;2022-07-23T12:05:16;98445.88;;;28.20;43.21
18858;BME280;9558;50.178;8.370;2022-07-23T12:07:44;98441.19;;;28.12;43.28
18858;BME280;9558;50.178;8.370;2022-07-23T12:10:16;98436.25;;;28.00;42.96
18858;BME280;9558;50.178;8.370;2022-07-23T12:12:45;98448.22;;;27.97;43.05
18858;BME280;9558;50.178;8.370;2022-07-23T12:15:16;98453.56;;;27.97;43.54
18858;BME280;9558;50.178;8.370;2022-07-23T12:17:46;98429.91;;;27.96;43.63
18858;BME280;9558;50.178;8.370;2022-07-23T12:20:15;98434.91;;;28.02;43.84
18858;BME280;9558;50.178;8.370;2022-07-23T12:22:44;98430.88;;;28.05;43.37
18858;BME280;9558;50.178;8.370;2022-07-23T12:25:12;98434.66;;;27.99;43.21
18858;BME280;9558;50.178;8.370;2022-07-23T12:27:40;98442.44;;;27.90;42.41
18858;BME280;9558;50.178;8.370;2022-07-23T12:30:22;98444.53;;;27.69;42.91
18858;BME280;9558;50.178;8.370;2022-07-23T12:32:52;98445.38;;;27.64;43.84
18858;BME280;9558;50.178;8.370;2022-07-23T12:35:20;98442.44;;;27.66;44.09
18858;BME280;9558;50.178;8.370;2022-07-23T12:37:49;98443.50;;;27.65;43.14
18858;BME280;9558;50.178;8.370;2022-07-23T12:40:23;98447.50;;;27.62;43.52
18858;BME280;9558;50.178;8.370;2022-07-23T12:42:51;98439.59;;;27.57;43.04
18858;BME280;9558;50.178;8.370;2022-07-23T12:45:18;98443.97;;;27.42;42.86
18858;BME280;9558;50.178;8.370;2022-07-23T12:48:15;98442.38;;;27.41;43.59
18858;BME280;9558;50.178;8.370;2022-07-23T12:50:44;98436.50;;;27.45;43.91
18858;BME280;9558;50.178;8.370;2022-07-23T12:53:16;98445.97;;;27.56;44.03
18858;BME280;9558;50.178;8.370;2022-07-23T12:55:44;98449.63;;;27.65;43.05
18858;BME280;9558;50.178;8.370;2022-07-23T12:58:14;98437.31;;;27.69;43.23
18858;BME280;9558;50.178;8.370;2022-07-23T13:01:01;98436.44;;;27.79;43.37
18858;BME280;9558;50.178;8.370;2022-07-23T13:03:33;98434.19;;;27.91;43.41
18858;BME280;9558;50.178;8.370;2022-07-23T13:06:00;98433.31;;;28.01;42.93
18858;BME280;9558;50.178;8.370;2022-07-23T13:08:29;98428.44;;;28.08;43.10
18858;BME280;9558;50.178;8.370;2022-07-23T13:10:57;98442.25;;;28.10;41.69
18858;BME280;9558;50.178;8.370;2022-07-23T13:13:25;98443.59;;;28.08;41.57
18858;BME280;9558;50.178;8.370;2022-07-23T13:15:53;98447.19;;;27.98;41.86
18858;BME280;9558;50.178;8.370;2022-07-23T13:18:20;98442.91;;;27.97;42.09